createdAt,value
2018-08-27T00:00:25.493Z,53.05
2018-08-27T00:01:25.959Z,52.90
2018-08-27T00:02:26.429Z,52.72
2018-08-27T00:03:26.899Z,52.63
2018-08-27T00:04:27.369Z,52.53
2018-08-27T00:05:27.840Z,52.35
2018-08-27T00:06:28.310Z,52.24
2018-08-27T00:07:28.777Z,52.12
2018-08-27T00:08:29.250Z,52.07
2018-08-27T00:09:29.716Z,52.02
2018-08-27T00:10:30.190Z,51.90
2018-08-27T00:11:30.657Z,51.82
2018-08-27T00:12:31.127Z,51.78
2018-08-27T00:13:31.598Z,51.72
2018-08-27T00:14:32.072Z,51.65
2018-08-27T00:15:32.537Z,51.66
2018-08-27T00:16:33.008Z,51.65
2018-08-27T00:17:33.483Z,51.59
2018-08-27T00:18:34.002Z,51.55
2018-08-27T00:19:34.419Z,51.53
2018-08-27T00:20:34.892Z,51.49
2018-08-27T00:21:35.361Z,51.43
2018-08-27T00:22:35.833Z,51.44
2018-08-27T00:23:36.304Z,51.48
2018-08-27T00:24:36.775Z,51.43
2018-08-27T00:25:37.253Z,51.46
2018-08-27T00:26:37.718Z,51.39
2018-08-27T00:27:38.203Z,51.36
2018-08-27T00:28:38.656Z,51.30
2018-08-27T00:29:39.131Z,51.27
2018-08-27T00:30:39.604Z,51.27
2018-08-27T00:31:40.073Z,51.29
2018-08-27T00:32:40.542Z,51.31
2018-08-27T00:33:41.016Z,51.28
2018-08-27T00:34:41.487Z,51.25
2018-08-27T00:35:41.957Z,51.21
2018-08-27T00:36:42.434Z,51.20
2018-08-27T00:37:42.921Z,51.18
2018-08-27T00:38:43.374Z,51.13
2018-08-27T00:39:43.846Z,51.12
2018-08-27T00:40:44.318Z,51.03
2018-08-27T00:41:44.792Z,51.05
2018-08-27T00:42:45.267Z,51.05
2018-08-27T00:43:45.735Z,51.05
2018-08-27T00:44:46.209Z,51.07
2018-08-27T00:45:46.679Z,51.06
2018-08-27T00:46:47.154Z,51.10
2018-08-27T00:47:47.626Z,51.20
2018-08-27T00:48:48.147Z,51.29
2018-08-27T00:49:48.571Z,51.33
2018-08-27T00:50:49.047Z,51.29
2018-08-27T00:51:49.515Z,51.29
2018-08-27T00:52:49.987Z,51.30
2018-08-27T00:53:50.460Z,51.38
2018-08-27T00:54:50.938Z,51.42
2018-08-27T00:55:51.406Z,51.45
2018-08-27T00:56:51.881Z,51.46
2018-08-27T00:57:52.352Z,51.43
2018-08-27T00:58:52.824Z,51.44
2018-08-27T00:59:53.299Z,51.46
2018-08-27T01:00:53.772Z,51.45
2018-08-27T01:01:54.244Z,51.53
2018-08-27T01:02:54.717Z,51.55
2018-08-27T01:03:55.192Z,51.47
2018-08-27T01:04:55.663Z,51.47
2018-08-27T01:05:56.137Z,51.47
2018-08-27T01:06:56.609Z,51.44
2018-08-27T01:07:57.082Z,51.43
2018-08-27T01:08:57.557Z,51.44
2018-08-27T01:09:58.027Z,51.44
2018-08-27T01:10:58.505Z,51.47
2018-08-27T01:11:58.975Z,51.51
2018-08-27T01:12:59.449Z,51.49
2018-08-27T01:13:59.921Z,51.52
2018-08-27T01:15:00.395Z,51.53
2018-08-27T01:16:00.867Z,51.50
2018-08-27T01:17:01.342Z,51.47
2018-08-27T01:18:01.818Z,51.50
2018-08-27T01:19:02.289Z,51.50
2018-08-27T01:20:02.762Z,51.51
2018-08-27T01:21:03.235Z,51.52
2018-08-27T01:22:03.707Z,51.62
2018-08-27T01:23:04.182Z,51.69
2018-08-27T01:24:04.653Z,51.77
2018-08-27T01:25:05.127Z,51.84
2018-08-27T01:26:05.600Z,51.87
2018-08-27T01:27:06.071Z,51.96
2018-08-27T01:28:06.542Z,51.96
2018-08-27T01:29:07.014Z,52.03
2018-08-27T01:30:07.490Z,52.06
2018-08-27T01:31:07.960Z,52.15
2018-08-27T01:32:08.430Z,52.24
2018-08-27T01:33:08.902Z,52.35
2018-08-27T01:34:09.422Z,52.44
2018-08-27T01:35:09.844Z,52.50
2018-08-27T01:36:10.312Z,52.56
2018-08-27T01:37:10.782Z,52.58
2018-08-27T01:38:11.255Z,52.60
2018-08-27T01:39:11.724Z,52.56
2018-08-27T01:40:12.193Z,52.56
2018-08-27T01:41:12.662Z,52.55
2018-08-27T01:42:13.131Z,52.45
2018-08-27T01:43:13.604Z,52.38
2018-08-27T01:44:14.072Z,52.34
2018-08-27T01:45:14.541Z,52.28
2018-08-27T01:46:15.010Z,52.18
2018-08-27T01:47:15.479Z,52.14
2018-08-27T01:48:15.955Z,51.99
2018-08-27T01:49:16.420Z,51.84
2018-08-27T01:50:16.889Z,51.72
2018-08-27T01:51:17.358Z,51.47
2018-08-27T01:52:17.830Z,51.29
2018-08-27T01:53:18.296Z,51.12
2018-08-27T01:54:18.766Z,51.04
2018-08-27T01:55:19.236Z,50.97
2018-08-27T01:56:19.705Z,50.88
2018-08-27T01:57:20.175Z,50.81
2018-08-27T01:58:20.646Z,50.73
2018-08-27T01:59:21.116Z,50.66
2018-08-27T02:00:21.584Z,50.59
2018-08-27T02:01:22.054Z,50.52
2018-08-27T02:02:22.524Z,50.45
2018-08-27T02:03:22.996Z,50.36
2018-08-27T02:04:23.514Z,50.30
2018-08-27T02:05:23.935Z,50.22
2018-08-27T02:06:24.405Z,50.14
2018-08-27T02:07:24.878Z,50.09
2018-08-27T02:08:25.345Z,50.07
2018-08-27T02:09:25.815Z,50.03
2018-08-27T02:10:26.288Z,49.98
2018-08-27T02:11:26.757Z,50.02
2018-08-27T02:12:27.230Z,49.98
2018-08-27T02:13:27.701Z,50.01
2018-08-27T02:14:28.173Z,49.92
2018-08-27T02:15:28.646Z,49.83
2018-08-27T02:16:29.167Z,49.84
2018-08-27T02:17:29.585Z,49.87
2018-08-27T02:18:30.057Z,49.85
2018-08-27T02:19:30.530Z,49.83
2018-08-27T02:20:30.998Z,49.83
2018-08-27T02:21:31.470Z,49.88
2018-08-27T02:22:31.944Z,49.88
2018-08-27T02:23:32.413Z,49.83
2018-08-27T02:24:32.885Z,49.82
2018-08-27T02:25:33.358Z,49.81
2018-08-27T02:26:33.830Z,49.76
2018-08-27T02:27:34.301Z,49.76
2018-08-27T02:28:34.772Z,49.79
2018-08-27T02:29:35.247Z,49.77
2018-08-27T02:30:35.717Z,49.79
2018-08-27T02:31:36.192Z,49.78
2018-08-27T02:32:36.662Z,49.79
2018-08-27T02:33:37.136Z,49.79
2018-08-27T02:34:37.608Z,49.82
2018-08-27T02:35:38.080Z,49.80
2018-08-27T02:36:38.553Z,49.76
2018-08-27T02:37:39.024Z,49.81
2018-08-27T02:38:39.498Z,49.77
2018-08-27T02:39:39.971Z,49.73
2018-08-27T02:40:40.441Z,49.68
2018-08-27T02:41:40.917Z,49.73
2018-08-27T02:42:41.389Z,49.82
2018-08-27T02:43:41.862Z,49.76
2018-08-27T02:44:42.334Z,49.83
2018-08-27T02:45:42.805Z,49.82
2018-08-27T02:46:43.278Z,49.78
2018-08-27T02:47:43.753Z,49.78
2018-08-27T02:48:44.224Z,49.79
2018-08-27T02:49:44.700Z,49.76
2018-08-27T02:50:45.172Z,49.73
2018-08-27T02:51:45.647Z,49.73
2018-08-27T02:52:46.121Z,49.69
2018-08-27T02:53:46.590Z,49.67
2018-08-27T02:54:47.064Z,49.74
2018-08-27T02:55:47.551Z,49.78
2018-08-27T02:56:48.011Z,49.90
2018-08-27T02:57:48.484Z,49.99
2018-08-27T02:58:48.958Z,50.09
2018-08-27T02:59:49.431Z,50.17
2018-08-27T03:00:49.903Z,50.26
2018-08-27T03:01:50.377Z,50.34
2018-08-27T03:02:50.848Z,50.45
2018-08-27T03:03:51.322Z,50.47
2018-08-27T03:04:51.842Z,50.57
2018-08-27T03:05:52.265Z,50.64
2018-08-27T03:06:52.738Z,50.69
2018-08-27T03:07:53.209Z,50.79
2018-08-27T03:08:53.680Z,50.88
2018-08-27T03:09:54.156Z,50.97
2018-08-27T03:10:54.623Z,51.06
2018-08-27T03:11:55.093Z,51.16
2018-08-27T03:12:55.566Z,51.23
2018-08-27T03:13:56.035Z,51.28
2018-08-27T03:14:56.505Z,51.38
2018-08-27T03:15:56.973Z,51.41
2018-08-27T03:16:57.445Z,51.40
2018-08-27T03:17:57.915Z,51.38
2018-08-27T03:18:58.383Z,51.39
2018-08-27T03:19:58.854Z,51.38
2018-08-27T03:20:59.324Z,51.29
2018-08-27T03:21:59.792Z,51.16
2018-08-27T03:23:00.261Z,51.02
2018-08-27T03:24:00.733Z,50.88
2018-08-27T03:25:01.290Z,50.77
2018-08-27T03:26:01.668Z,50.73
2018-08-27T03:27:02.141Z,50.66
2018-08-27T03:28:02.608Z,50.54
2018-08-27T03:29:03.078Z,50.47
2018-08-27T03:30:03.569Z,50.36
2018-08-27T03:31:04.018Z,50.28
2018-08-27T03:32:04.487Z,50.14
2018-08-27T03:33:04.956Z,50.03
2018-08-27T03:34:05.427Z,49.97
2018-08-27T03:35:05.894Z,49.84
2018-08-27T03:36:06.365Z,49.77
2018-08-27T03:37:06.834Z,49.70
2018-08-27T03:38:07.303Z,49.63
2018-08-27T03:39:07.774Z,49.54
2018-08-27T03:40:08.245Z,49.48
2018-08-27T03:41:08.713Z,49.42
2018-08-27T03:42:09.184Z,49.37
2018-08-27T03:43:09.653Z,49.30
2018-08-27T03:44:10.124Z,49.23
2018-08-27T03:45:10.595Z,49.21
2018-08-27T03:46:11.066Z,49.18
2018-08-27T03:47:11.535Z,49.11
2018-08-27T03:48:12.008Z,49.08
2018-08-27T03:49:12.480Z,49.02
2018-08-27T03:50:12.947Z,48.96
2018-08-27T03:51:13.418Z,48.93
2018-08-27T03:52:13.888Z,48.96
2018-08-27T03:53:14.361Z,48.94
2018-08-27T03:54:14.832Z,48.94
2018-08-27T03:55:15.303Z,48.97
2018-08-27T03:56:15.773Z,49.05
2018-08-27T03:57:16.244Z,49.11
2018-08-27T03:58:16.716Z,49.13
2018-08-27T03:59:17.189Z,49.11
2018-08-27T04:00:17.659Z,49.09
2018-08-27T04:01:18.132Z,49.09
2018-08-27T04:02:18.603Z,49.07
2018-08-27T04:03:19.074Z,49.06
2018-08-27T04:04:19.550Z,49.05
2018-08-27T04:05:20.070Z,49.09
2018-08-27T04:06:20.495Z,49.10
2018-08-27T04:07:20.961Z,49.18
2018-08-27T04:08:21.434Z,49.28
2018-08-27T04:09:21.905Z,49.32
2018-08-27T04:10:22.380Z,49.33
2018-08-27T04:11:22.851Z,49.33
2018-08-27T04:12:23.325Z,49.27
2018-08-27T04:13:23.793Z,49.25
2018-08-27T04:14:24.265Z,49.17
2018-08-27T04:15:24.738Z,49.18
2018-08-27T04:16:25.212Z,49.13
2018-08-27T04:17:25.685Z,49.11
2018-08-27T04:18:26.159Z,49.12
2018-08-27T04:19:26.630Z,49.18
2018-08-27T04:20:27.103Z,49.24
2018-08-27T04:21:27.576Z,49.32
2018-08-27T04:22:28.048Z,49.41
2018-08-27T04:23:28.519Z,49.51
2018-08-27T04:24:28.993Z,49.60
2018-08-27T04:25:29.466Z,49.66
2018-08-27T04:26:29.939Z,49.71
2018-08-27T04:27:30.413Z,49.80
2018-08-27T04:28:30.884Z,49.87
2018-08-27T04:29:31.357Z,49.89
2018-08-27T04:30:31.832Z,49.93
2018-08-27T04:31:32.304Z,50.04
2018-08-27T04:32:32.777Z,50.12
2018-08-27T04:33:33.249Z,50.14
2018-08-27T04:34:33.723Z,50.24
2018-08-27T04:35:34.248Z,50.31
2018-08-27T04:36:34.669Z,50.32
2018-08-27T04:37:35.141Z,50.31
2018-08-27T04:38:35.617Z,50.34
2018-08-27T04:39:36.089Z,50.33
2018-08-27T04:40:36.562Z,50.31
2018-08-27T04:41:37.034Z,50.28
2018-08-27T04:42:37.538Z,50.26
2018-08-27T04:43:37.983Z,50.26
2018-08-27T04:44:38.455Z,50.28
2018-08-27T04:45:38.927Z,50.22
2018-08-27T04:46:39.405Z,50.20
2018-08-27T04:47:39.876Z,50.21
2018-08-27T04:48:40.351Z,50.18
2018-08-27T04:49:40.820Z,50.16
2018-08-27T04:50:41.295Z,50.12
2018-08-27T04:51:41.767Z,50.13
2018-08-27T04:52:42.243Z,50.17
2018-08-27T04:53:42.714Z,50.22
2018-08-27T04:54:43.200Z,50.26
2018-08-27T04:55:43.664Z,50.29
2018-08-27T04:56:44.135Z,50.28
2018-08-27T04:57:44.608Z,50.27
2018-08-27T04:58:45.081Z,50.25
2018-08-27T04:59:45.552Z,50.27
2018-08-27T05:00:46.024Z,50.30
2018-08-27T05:01:46.497Z,50.35
2018-08-27T05:02:46.970Z,50.34
2018-08-27T05:03:47.441Z,50.41
2018-08-27T05:04:47.913Z,50.48
2018-08-27T05:05:48.386Z,50.55
2018-08-27T05:06:48.856Z,50.63
2018-08-27T05:07:49.327Z,50.70
2018-08-27T05:08:49.802Z,50.75
2018-08-27T05:09:50.267Z,50.76
2018-08-27T05:10:50.739Z,50.75
2018-08-27T05:11:51.210Z,50.73
2018-08-27T05:12:51.680Z,50.75
2018-08-27T05:13:52.150Z,50.77
2018-08-27T05:14:52.619Z,50.80
2018-08-27T05:15:53.089Z,50.74
2018-08-27T05:16:53.560Z,50.62
2018-08-27T05:17:54.028Z,50.50
2018-08-27T05:18:54.501Z,50.35
2018-08-27T05:19:54.971Z,50.22
2018-08-27T05:20:55.438Z,49.99
2018-08-27T05:21:55.909Z,49.92
2018-08-27T05:22:56.379Z,49.83
2018-08-27T05:23:56.848Z,49.78
2018-08-27T05:24:57.318Z,49.68
2018-08-27T05:25:57.786Z,49.54
2018-08-27T05:26:58.256Z,49.46
2018-08-27T05:27:58.727Z,49.19
2018-08-27T05:28:59.195Z,49.11
2018-08-27T05:29:59.665Z,49.08
2018-08-27T05:31:00.174Z,48.99
2018-08-27T05:32:00.605Z,48.95
2018-08-27T05:33:01.075Z,48.94
2018-08-27T05:34:01.544Z,48.87
2018-08-27T05:35:02.013Z,48.83
2018-08-27T05:36:02.484Z,48.75
2018-08-27T05:37:02.960Z,48.60
2018-08-27T05:38:03.475Z,48.55
2018-08-27T05:39:03.897Z,48.45
2018-08-27T05:40:04.367Z,48.34
2018-08-27T05:41:04.841Z,48.28
2018-08-27T05:42:05.307Z,48.27
2018-08-27T05:43:05.776Z,48.20
2018-08-27T05:44:06.248Z,48.16
2018-08-27T05:45:06.718Z,48.11
2018-08-27T05:46:07.241Z,48.08
2018-08-27T05:47:07.661Z,48.00
2018-08-27T05:48:08.134Z,47.92
2018-08-27T05:49:08.602Z,47.91
2018-08-27T05:50:09.075Z,47.95
2018-08-27T05:51:09.546Z,47.91
2018-08-27T05:52:10.044Z,47.86
2018-08-27T05:53:10.496Z,47.78
2018-08-27T05:54:10.960Z,47.74
2018-08-27T05:55:11.433Z,47.70
2018-08-27T05:56:11.904Z,47.64
2018-08-27T05:57:12.377Z,47.54
2018-08-27T05:58:12.849Z,47.52
2018-08-27T05:59:13.321Z,47.45
2018-08-27T06:00:13.793Z,47.35
2018-08-27T06:01:14.265Z,47.36
2018-08-27T06:02:14.741Z,47.38
2018-08-27T06:03:15.213Z,47.33
2018-08-27T06:04:15.684Z,47.27
2018-08-27T06:05:16.155Z,47.24
2018-08-27T06:06:16.628Z,47.19
2018-08-27T06:07:17.100Z,47.17
2018-08-27T06:08:17.576Z,47.15
2018-08-27T06:09:18.173Z,47.05
2018-08-27T06:10:18.519Z,47.03
2018-08-27T06:11:19.088Z,47.03
2018-08-27T06:12:19.468Z,47.02
2018-08-27T06:13:19.940Z,47.05
2018-08-27T06:14:20.414Z,47.12
2018-08-27T06:15:20.887Z,47.14
2018-08-27T06:16:21.551Z,47.14
2018-08-27T06:17:21.836Z,47.17
2018-08-27T06:18:22.306Z,47.19
2018-08-27T06:19:22.784Z,47.28
2018-08-27T06:20:23.259Z,47.32
2018-08-27T06:21:23.731Z,47.41
2018-08-27T06:22:24.237Z,47.48
2018-08-27T06:23:24.677Z,47.54
2018-08-27T06:24:25.150Z,47.59
2018-08-27T06:25:25.624Z,47.69
2018-08-27T06:26:26.095Z,47.74
2018-08-27T06:27:26.570Z,47.76
2018-08-27T06:28:27.045Z,47.78
2018-08-27T06:29:27.516Z,47.76
2018-08-27T06:30:27.989Z,47.78
2018-08-27T06:31:28.512Z,47.79
2018-08-27T06:32:28.985Z,47.80
2018-08-27T06:33:29.404Z,47.80
2018-08-27T06:34:29.877Z,47.83
2018-08-27T06:35:30.347Z,47.87
2018-08-27T06:36:30.883Z,47.93
2018-08-27T06:37:31.294Z,47.99
2018-08-27T06:38:31.782Z,48.05
2018-08-27T06:39:32.236Z,48.09
2018-08-27T06:40:32.704Z,48.17
2018-08-27T06:41:33.177Z,48.19
2018-08-27T06:42:33.646Z,48.18
2018-08-27T06:43:34.115Z,48.09
2018-08-27T06:44:34.631Z,47.98
2018-08-27T06:45:35.060Z,47.92
2018-08-27T06:46:35.528Z,47.79
2018-08-27T06:47:35.999Z,47.65
2018-08-27T06:48:36.469Z,47.53
2018-08-27T06:49:36.939Z,47.41
2018-08-27T06:50:37.408Z,47.33
2018-08-27T06:51:37.882Z,47.18
2018-08-27T06:52:38.350Z,47.07
2018-08-27T06:53:38.822Z,46.96
2018-08-27T06:54:39.289Z,46.88
2018-08-27T06:55:39.762Z,46.79
2018-08-27T06:56:40.260Z,46.70
2018-08-27T06:57:40.702Z,46.60
2018-08-27T06:58:41.174Z,46.56
2018-08-27T06:59:41.642Z,46.48
2018-08-27T07:00:42.120Z,46.42
2018-08-27T07:01:42.589Z,46.35
2018-08-27T07:02:43.056Z,46.20
2018-08-27T07:03:43.529Z,46.14
2018-08-27T07:04:44.004Z,46.02
2018-08-27T07:05:44.471Z,45.97
2018-08-27T07:06:44.992Z,45.87
2018-08-27T07:07:45.474Z,45.78
2018-08-27T07:08:45.889Z,45.71
2018-08-27T07:09:46.361Z,45.63
2018-08-27T07:10:46.835Z,45.57
2018-08-27T07:11:47.399Z,45.54
2018-08-27T07:12:47.776Z,45.47
2018-08-27T07:13:48.247Z,45.47
2018-08-27T07:14:48.718Z,45.44
2018-08-27T07:15:49.194Z,45.48
2018-08-27T07:16:49.669Z,45.48
2018-08-27T07:17:50.140Z,45.47
2018-08-27T07:18:50.616Z,45.44
2018-08-27T07:19:51.084Z,45.45
2018-08-27T07:20:51.558Z,45.43
2018-08-27T07:21:52.031Z,45.45
2018-08-27T07:22:52.505Z,45.46
2018-08-27T07:23:52.983Z,45.46
2018-08-27T07:24:53.453Z,45.46
2018-08-27T07:25:53.927Z,45.47
2018-08-27T07:26:54.400Z,45.50
2018-08-27T07:27:54.876Z,45.59
2018-08-27T07:28:55.348Z,45.66
2018-08-27T07:29:55.824Z,45.76
2018-08-27T07:30:56.296Z,45.83
2018-08-27T07:31:56.821Z,45.92
2018-08-27T07:32:57.244Z,46.01
2018-08-27T07:33:57.718Z,46.07
2018-08-27T07:34:58.192Z,46.12
2018-08-27T07:35:58.689Z,46.16
2018-08-27T07:36:59.192Z,46.18
2018-08-27T07:37:59.612Z,46.21
2018-08-27T07:39:00.087Z,46.21
2018-08-27T07:40:00.558Z,46.24
2018-08-27T07:41:01.030Z,46.30
2018-08-27T07:42:01.504Z,46.33
2018-08-27T07:43:01.977Z,46.40
2018-08-27T07:44:02.450Z,46.45
2018-08-27T07:45:02.922Z,46.53
2018-08-27T07:46:03.395Z,46.59
2018-08-27T07:47:03.863Z,46.60
2018-08-27T07:48:04.336Z,46.65
2018-08-27T07:49:04.806Z,46.72
2018-08-27T07:50:05.281Z,46.79
2018-08-27T07:51:05.782Z,46.84
2018-08-27T07:52:06.261Z,46.89
2018-08-27T07:53:06.692Z,46.93
2018-08-27T07:54:07.163Z,46.90
2018-08-27T07:55:07.634Z,46.84
2018-08-27T07:56:08.104Z,46.70
2018-08-27T07:57:08.576Z,46.59
2018-08-27T07:58:09.047Z,46.48
2018-08-27T07:59:09.514Z,46.38
2018-08-27T08:00:09.984Z,46.22
2018-08-27T08:01:10.454Z,46.18
2018-08-27T08:02:10.925Z,46.14
2018-08-27T08:03:11.395Z,46.09
2018-08-27T08:04:11.868Z,46.03
2018-08-27T08:05:12.339Z,45.94
2018-08-27T08:06:12.807Z,45.80
2018-08-27T08:07:13.388Z,45.66
2018-08-27T08:08:13.748Z,45.52
2018-08-27T08:09:14.220Z,45.43
2018-08-27T08:10:14.693Z,45.34
2018-08-27T08:11:15.160Z,45.30
2018-08-27T08:12:15.633Z,45.23
2018-08-27T08:13:16.104Z,45.13
2018-08-27T08:14:16.576Z,45.07
2018-08-27T08:15:17.045Z,45.01
2018-08-27T08:16:17.516Z,44.90
2018-08-27T08:17:17.989Z,44.76
2018-08-27T08:18:18.464Z,44.66
2018-08-27T08:19:18.934Z,44.57
2018-08-27T08:20:19.409Z,44.46
2018-08-27T08:21:19.877Z,44.39
2018-08-27T08:22:20.349Z,44.29
2018-08-27T08:23:20.824Z,44.22
2018-08-27T08:24:21.296Z,44.10
2018-08-27T08:25:21.769Z,43.97
2018-08-27T08:26:22.245Z,43.87
2018-08-27T08:27:22.717Z,43.73
2018-08-27T08:28:23.190Z,43.67
2018-08-27T08:29:23.663Z,43.60
2018-08-27T08:30:24.140Z,43.53
2018-08-27T08:31:24.613Z,43.43
2018-08-27T08:32:25.088Z,43.28
2018-08-27T08:33:25.562Z,43.02
2018-08-27T08:34:26.041Z,42.86
2018-08-27T08:35:26.511Z,42.55
2018-08-27T08:36:26.989Z,42.29
2018-08-27T08:37:27.516Z,42.21
2018-08-27T08:38:27.943Z,42.13
2018-08-27T08:39:28.415Z,42.13
2018-08-27T08:40:28.891Z,42.18
2018-08-27T08:41:29.370Z,42.27
2018-08-27T08:42:29.846Z,42.36
2018-08-27T08:43:30.322Z,42.44
2018-08-27T08:44:30.796Z,42.54
2018-08-27T08:45:31.273Z,42.66
2018-08-27T08:46:31.750Z,42.78
2018-08-27T08:47:32.224Z,42.83
2018-08-27T08:48:32.699Z,42.85
2018-08-27T08:49:33.178Z,42.75
2018-08-27T08:50:33.652Z,42.69
2018-08-27T08:51:34.129Z,42.71
2018-08-27T08:52:34.652Z,42.68
2018-08-27T08:53:35.123Z,42.67
2018-08-27T08:54:35.551Z,42.70
2018-08-27T08:55:36.023Z,42.70
2018-08-27T08:56:36.501Z,42.72
2018-08-27T08:57:36.973Z,42.76
2018-08-27T08:58:37.449Z,42.83
2018-08-27T08:59:37.920Z,42.89
2018-08-27T09:00:38.394Z,42.96
2018-08-27T09:01:38.920Z,43.05
2018-08-27T09:02:39.341Z,43.09
2018-08-27T09:03:39.814Z,43.19
2018-08-27T09:04:40.287Z,43.30
2018-08-27T09:05:40.759Z,43.34
2018-08-27T09:06:41.232Z,43.34
2018-08-27T09:07:41.705Z,43.31
2018-08-27T09:08:42.176Z,43.28
2018-08-27T09:09:42.647Z,43.24
2018-08-27T09:10:43.124Z,43.29
2018-08-27T09:11:43.598Z,43.38
2018-08-27T09:12:44.061Z,43.43
2018-08-27T09:13:44.535Z,43.44
2018-08-27T09:14:45.008Z,43.44
2018-08-27T09:15:45.477Z,43.43
2018-08-27T09:16:45.959Z,43.41
2018-08-27T09:17:46.419Z,43.39
2018-08-27T09:18:46.890Z,43.39
2018-08-27T09:19:47.360Z,43.35
2018-08-27T09:20:47.829Z,43.28
2018-08-27T09:21:48.302Z,43.25
2018-08-27T09:22:48.773Z,43.18
2018-08-27T09:23:49.260Z,43.16
2018-08-27T09:24:49.715Z,43.13
2018-08-27T09:25:50.185Z,43.09
2018-08-27T09:26:50.658Z,42.99
2018-08-27T09:27:51.129Z,42.88
2018-08-27T09:28:51.600Z,42.82
2018-08-27T09:29:52.073Z,42.75
2018-08-27T09:30:52.544Z,42.74
2018-08-27T09:31:53.014Z,42.71
2018-08-27T09:32:53.486Z,42.63
2018-08-27T09:33:53.959Z,42.64
2018-08-27T09:34:54.430Z,42.59
2018-08-27T09:35:54.902Z,42.59
2018-08-27T09:36:55.401Z,42.59
2018-08-27T09:37:55.899Z,42.61
2018-08-27T09:38:56.323Z,42.63
2018-08-27T09:39:56.793Z,42.64
2018-08-27T09:40:57.267Z,42.63
2018-08-27T09:41:57.741Z,42.62
2018-08-27T09:42:58.216Z,42.60
2018-08-27T09:43:58.691Z,42.59
2018-08-27T09:44:59.161Z,42.61
2018-08-27T09:45:59.677Z,42.62
2018-08-27T09:47:00.162Z,42.60
2018-08-27T09:48:00.586Z,42.59
2018-08-27T09:49:01.057Z,42.60
2018-08-27T09:50:01.535Z,42.61
2018-08-27T09:51:02.009Z,42.67
2018-08-27T09:52:02.482Z,42.71
2018-08-27T09:53:02.966Z,42.74
2018-08-27T09:54:03.431Z,42.79
2018-08-27T09:55:03.906Z,42.82
2018-08-27T09:56:04.380Z,42.85
2018-08-27T09:57:04.856Z,42.88
2018-08-27T09:58:05.383Z,42.93
2018-08-27T09:59:05.874Z,43.00
2018-08-27T10:00:06.279Z,43.05
2018-08-27T10:01:06.753Z,43.09
2018-08-27T10:02:07.228Z,43.15
2018-08-27T10:03:07.703Z,43.19
2018-08-27T10:04:08.176Z,43.22
2018-08-27T10:05:08.651Z,43.26
2018-08-27T10:06:09.123Z,43.27
2018-08-27T10:07:09.598Z,43.29
2018-08-27T10:08:10.070Z,43.29
2018-08-27T10:09:10.592Z,43.25
2018-08-27T10:10:11.017Z,43.24
2018-08-27T10:11:11.491Z,43.20
2018-08-27T10:12:11.963Z,43.08
2018-08-27T10:13:12.435Z,42.88
2018-08-27T10:14:12.910Z,42.67
2018-08-27T10:15:13.381Z,42.47
2018-08-27T10:16:13.855Z,42.28
2018-08-27T10:17:14.325Z,42.11
2018-08-27T10:18:14.799Z,41.98
2018-08-27T10:19:15.273Z,41.85
2018-08-27T10:20:15.743Z,41.79
2018-08-27T10:21:16.214Z,41.73
2018-08-27T10:22:16.792Z,41.71
2018-08-27T10:23:17.162Z,41.71
2018-08-27T10:24:17.631Z,41.75
2018-08-27T10:25:18.102Z,41.82
2018-08-27T10:26:18.613Z,41.92
2018-08-27T10:27:19.047Z,41.99
2018-08-27T10:28:19.516Z,42.07
2018-08-27T10:29:19.989Z,42.12
2018-08-27T10:30:20.459Z,42.17
2018-08-27T10:31:20.931Z,42.24
2018-08-27T10:32:21.400Z,42.25
2018-08-27T10:33:21.873Z,42.32
2018-08-27T10:34:22.341Z,42.43
2018-08-27T10:35:22.814Z,42.54
2018-08-27T10:36:23.283Z,42.68
2018-08-27T10:37:23.754Z,42.80
2018-08-27T10:38:24.224Z,42.87
2018-08-27T10:39:24.695Z,42.94
2018-08-27T10:40:25.164Z,43.00
2018-08-27T10:41:25.635Z,42.99
2018-08-27T10:42:26.106Z,42.98
2018-08-27T10:43:26.630Z,42.99
2018-08-27T10:44:27.048Z,42.96
2018-08-27T10:45:27.520Z,42.94
2018-08-27T10:46:27.991Z,42.92
2018-08-27T10:47:28.459Z,42.89
2018-08-27T10:48:28.929Z,42.83
2018-08-27T10:49:29.400Z,42.76
2018-08-27T10:50:29.904Z,42.69
2018-08-27T10:51:30.342Z,42.63
2018-08-27T10:52:30.813Z,42.57
2018-08-27T10:53:31.283Z,42.51
2018-08-27T10:54:31.756Z,42.49
2018-08-27T10:55:32.227Z,42.44
2018-08-27T10:56:32.700Z,42.40
2018-08-27T10:57:33.172Z,42.38
2018-08-27T10:59:34.118Z,42.27
2018-08-27T11:00:34.587Z,42.23
2018-08-27T11:01:35.060Z,42.20
2018-08-27T11:02:35.534Z,42.17
2018-08-27T11:03:36.008Z,42.13
2018-08-27T11:04:36.481Z,42.08
2018-08-27T11:05:36.955Z,41.98
2018-08-27T11:06:37.438Z,41.90
2018-08-27T11:07:37.904Z,41.86
2018-08-27T11:08:38.427Z,41.83
2018-08-27T11:09:38.850Z,41.84
2018-08-27T11:10:39.352Z,41.81
2018-08-27T11:11:39.802Z,41.81
2018-08-27T11:12:40.274Z,41.87
2018-08-27T11:13:40.752Z,41.93
2018-08-27T11:14:41.225Z,41.92
2018-08-27T11:15:41.700Z,41.95
2018-08-27T11:16:42.173Z,41.96
2018-08-27T11:17:42.650Z,41.98
2018-08-27T11:18:43.125Z,42.03
2018-08-27T11:19:43.730Z,42.09
2018-08-27T11:20:44.128Z,42.13
2018-08-27T11:21:44.548Z,42.16
2018-08-27T11:22:45.022Z,42.19
2018-08-27T11:23:45.499Z,42.25
2018-08-27T11:24:45.972Z,42.30
2018-08-27T11:25:46.446Z,42.34
2018-08-27T11:26:47.098Z,42.41
2018-08-27T11:27:47.399Z,42.42
2018-08-27T11:28:47.870Z,42.46
2018-08-27T11:29:48.345Z,42.50
2018-08-27T11:30:48.816Z,42.55
2018-08-27T11:31:49.295Z,42.54
2018-08-27T11:32:49.787Z,42.58
2018-08-27T11:33:50.237Z,42.60
2018-08-27T11:34:50.710Z,42.63
2018-08-27T11:35:51.184Z,42.65
2018-08-27T11:36:51.660Z,42.65
2018-08-27T11:37:52.129Z,42.68
2018-08-27T11:38:52.604Z,42.68
2018-08-27T11:39:53.078Z,42.68
2018-08-27T11:40:53.549Z,42.71
2018-08-27T11:41:54.021Z,42.71
2018-08-27T11:42:54.492Z,42.72
2018-08-27T11:43:54.966Z,42.72
2018-08-27T11:44:55.437Z,42.75
2018-08-27T11:45:55.915Z,42.79
2018-08-27T11:46:56.380Z,42.79
2018-08-27T11:47:56.854Z,42.81
2018-08-27T11:48:57.325Z,42.80
2018-08-27T11:49:57.801Z,42.80
2018-08-27T11:50:58.369Z,42.80
2018-08-27T11:51:58.743Z,42.80
2018-08-27T11:52:59.209Z,42.73
2018-08-27T11:53:59.682Z,42.75
2018-08-27T11:55:00.227Z,42.79
2018-08-27T11:56:00.624Z,42.83
2018-08-27T11:57:01.094Z,42.85
2018-08-27T11:58:01.567Z,42.88
2018-08-27T11:59:02.043Z,42.92
2018-08-27T12:00:02.510Z,42.95
2018-08-27T12:01:02.992Z,42.95
2018-08-27T12:02:03.498Z,42.84
2018-08-27T12:03:03.922Z,42.78
2018-08-27T12:04:04.392Z,42.74
2018-08-27T12:05:04.864Z,42.68
2018-08-27T12:06:05.334Z,42.65
2018-08-27T12:07:05.805Z,42.58
2018-08-27T12:08:06.278Z,42.51
2018-08-27T12:09:06.748Z,42.44
2018-08-27T12:10:07.223Z,42.38
2018-08-27T12:11:07.695Z,42.28
2018-08-27T12:12:08.170Z,42.20
2018-08-27T12:13:08.635Z,42.16
2018-08-27T12:14:09.109Z,42.12
2018-08-27T12:15:09.785Z,42.06
2018-08-27T12:16:10.055Z,42.03
2018-08-27T12:17:10.530Z,42.01
2018-08-27T12:18:11.001Z,42.00
2018-08-27T12:19:11.476Z,41.97
2018-08-27T12:20:11.947Z,41.94
2018-08-27T12:21:12.423Z,41.85
2018-08-27T12:22:12.894Z,41.79
2018-08-27T12:23:13.368Z,41.77
2018-08-27T12:24:13.843Z,41.76
2018-08-27T12:25:14.319Z,41.82
2018-08-27T12:26:14.791Z,41.85
2018-08-27T12:27:15.270Z,41.82
2018-08-27T12:28:15.744Z,41.84
2018-08-27T12:29:16.241Z,41.88
2018-08-27T12:30:16.691Z,41.94
2018-08-27T12:31:17.168Z,41.96
2018-08-27T12:32:17.644Z,41.97
2018-08-27T12:33:18.118Z,41.98
2018-08-27T12:34:18.593Z,41.97
2018-08-27T12:35:19.070Z,42.01
2018-08-27T12:36:19.544Z,42.08
2018-08-27T12:37:20.018Z,42.11
2018-08-27T12:38:20.495Z,42.14
2018-08-27T12:39:20.968Z,42.17
2018-08-27T12:40:21.447Z,42.23
2018-08-27T12:41:21.922Z,42.29
2018-08-27T12:42:22.394Z,42.37
2018-08-27T12:43:22.869Z,42.44
2018-08-27T12:44:23.344Z,42.50
2018-08-27T12:45:23.817Z,42.52
2018-08-27T12:46:24.292Z,42.56
2018-08-27T12:47:24.768Z,42.58
2018-08-27T12:48:25.240Z,42.56
2018-08-27T12:49:25.716Z,42.58
2018-08-27T12:50:26.189Z,42.62
2018-08-27T12:51:26.722Z,42.63
2018-08-27T12:52:27.138Z,42.64
2018-08-27T12:53:27.613Z,42.65
2018-08-27T12:54:28.089Z,42.66
2018-08-27T12:55:28.558Z,42.65
2018-08-27T12:56:29.033Z,42.65
2018-08-27T12:57:29.504Z,42.66
2018-08-27T12:58:30.021Z,42.63
2018-08-27T12:59:30.453Z,42.60